createdAt,value
2023-04-23T00:02:03.343Z,98060.47
2023-04-23T00:04:34.101Z,98070.16
2023-04-23T00:07:02.706Z,98063.34
2023-04-23T00:09:32.504Z,98066.16
2023-04-23T00:12:01.041Z,98057.72
2023-04-23T00:14:28.261Z,98064.63
2023-04-23T00:16:55.204Z,98063.22
2023-04-23T00:19:21.803Z,98069.41
2023-04-23T00:21:48.488Z,98059.28
2023-04-23T00:24:15.144Z,98067.13
2023-04-23T00:26:44.725Z,98059.28
2023-04-23T00:29:11.385Z,98055.16
2023-04-23T00:31:38.124Z,98045.69
2023-04-23T00:34:04.780Z,98057.19
2023-04-23T00:36:31.447Z,98044.28
2023-04-23T00:38:58.061Z,98049.59
2023-04-23T00:41:25.898Z,98045.25
2023-04-23T00:43:53.352Z,98037.56
2023-04-23T00:46:20.367Z,98049.75
2023-04-23T00:48:47.688Z,98050.81
2023-04-23T00:51:16.585Z,98038.03
2023-04-23T00:53:43.342Z,98041.59
2023-04-23T00:56:10.638Z,98038.22
2023-04-23T00:58:37.875Z,98042.78
2023-04-23T01:01:04.971Z,98041.19
2023-04-23T01:03:32.821Z,98046.44
2023-04-23T01:06:00.010Z,98048.41
2023-04-23T01:08:27.117Z,98039.00
2023-04-23T01:10:54.708Z,98044.19
2023-04-23T01:13:22.629Z,98041.59
2023-04-23T01:15:49.722Z,98041.88
2023-04-23T01:18:16.370Z,98049.78
2023-04-23T01:20:43.827Z,98049.00
2023-04-23T01:23:10.697Z,98044.66
2023-04-23T01:25:37.784Z,98041.16
2023-04-23T01:28:06.710Z,98042.34
2023-04-23T01:30:33.893Z,98042.41
2023-04-23T01:33:01.856Z,98043.31
2023-04-23T01:35:29.982Z,98043.41
2023-04-23T01:37:59.126Z,98040.09
2023-04-23T01:40:25.841Z,98045.25
2023-04-23T01:42:52.717Z,98038.66
2023-04-23T01:45:19.812Z,98042.97
2023-04-23T01:47:48.062Z,98041.50
2023-04-23T01:50:15.423Z,98046.69
2023-04-23T01:52:45.846Z,98040.72
2023-04-23T01:55:12.556Z,98043.44
2023-04-23T01:57:39.175Z,98041.69
2023-04-23T02:00:09.270Z,98037.34
2023-04-23T02:02:36.254Z,98032.38
2023-04-23T02:05:04.831Z,98039.28
2023-04-23T02:07:32.550Z,98037.84
2023-04-23T02:09:59.415Z,98043.03
2023-04-23T02:12:29.020Z,98038.84
2023-04-23T02:14:55.713Z,98038.13
2023-04-23T02:17:25.571Z,98033.06
2023-04-23T02:19:52.443Z,98033.88
2023-04-23T02:22:19.082Z,98045.94
2023-04-23T02:24:47.313Z,98030.59
2023-04-23T02:27:14.035Z,98027.22
2023-04-23T02:29:41.302Z,98029.94
2023-04-23T02:32:08.880Z,98027.53
2023-04-23T02:34:38.944Z,98024.66
2023-04-23T02:37:05.935Z,98024.06
2023-04-23T02:39:34.802Z,98032.84
2023-04-23T02:42:02.074Z,98032.13
2023-04-23T02:44:28.731Z,98031.28
2023-04-23T02:46:56.446Z,98020.22
2023-04-23T02:49:23.118Z,98024.53
2023-04-23T02:51:49.816Z,98023.03
2023-04-23T02:54:17.092Z,98025.03
2023-04-23T02:56:43.963Z,98024.22
2023-04-23T02:59:10.902Z,98028.66
2023-04-23T03:01:37.522Z,98024.28
2023-04-23T03:04:04.722Z,98026.00
2023-04-23T03:06:35.772Z,98025.34
2023-04-23T03:09:03.053Z,98019.38
2023-04-23T03:11:29.729Z,98019.44
2023-04-23T03:13:56.401Z,98022.88
2023-04-23T03:16:23.075Z,98023.03
2023-04-23T03:18:50.023Z,98017.78
2023-04-23T03:21:16.672Z,98015.41
2023-04-23T03:23:43.403Z,98024.91
2023-04-23T03:26:11.146Z,98030.19
2023-04-23T03:28:37.713Z,98031.03
2023-04-23T03:31:04.571Z,98032.03
2023-04-23T03:33:31.298Z,98033.22
2023-04-23T03:35:58.452Z,98028.84
2023-04-23T03:38:25.120Z,98025.72
2023-04-23T03:40:51.770Z,98025.72
2023-04-23T03:43:18.510Z,98031.00
2023-04-23T03:45:45.369Z,98031.94
2023-04-23T03:48:11.970Z,98033.59
2023-04-23T03:50:40.631Z,98036.31
2023-04-23T03:53:08.263Z,98032.06
2023-04-23T03:55:34.874Z,98045.16
2023-04-23T03:58:03.171Z,98043.47
2023-04-23T04:00:29.956Z,98046.19
2023-04-23T04:02:56.761Z,98043.75
2023-04-23T04:05:23.688Z,98036.91
2023-04-23T04:07:50.366Z,98045.38
2023-04-23T04:10:17.080Z,98049.59
2023-04-23T04:12:45.645Z,98041.78
2023-04-23T04:15:12.315Z,98040.09
2023-04-23T04:17:38.998Z,98040.22
2023-04-23T04:20:08.548Z,98041.09
2023-04-23T04:22:35.235Z,98038.63
2023-04-23T04:25:01.991Z,98047.28
2023-04-23T04:27:28.628Z,98049.09
2023-04-23T04:29:58.260Z,98044.88
2023-04-23T04:32:27.160Z,98049.16
2023-04-23T04:34:54.115Z,98039.59
2023-04-23T04:37:23.698Z,98046.50
2023-04-23T04:39:50.340Z,98049.03
2023-04-23T04:42:17.051Z,98049.09
2023-04-23T04:44:43.996Z,98043.84
2023-04-23T04:47:10.849Z,98055.22
2023-04-23T04:49:38.406Z,98044.88
2023-04-23T04:52:05.162Z,98056.03
2023-04-23T04:54:31.863Z,98058.63
2023-04-23T04:56:58.643Z,98057.75
2023-04-23T04:59:25.287Z,98052.56
2023-04-23T05:01:51.960Z,98050.75
2023-04-23T05:04:18.749Z,98055.84
2023-04-23T05:06:48.069Z,98050.66
2023-04-23T05:09:14.698Z,98049.75
2023-04-23T05:11:41.560Z,98046.25
2023-04-23T05:14:08.249Z,98051.22
2023-04-23T05:16:35.037Z,98051.16
2023-04-23T05:19:01.701Z,98056.28
2023-04-23T05:21:28.497Z,98056.28
2023-04-23T05:23:55.622Z,98057.97
2023-04-23T05:26:22.335Z,98055.25
2023-04-23T05:28:49.131Z,98056.75
2023-04-23T05:31:15.935Z,98048.72
2023-04-23T05:33:49.713Z,98046.91
2023-04-23T05:36:17.838Z,98043.38
2023-04-23T05:38:44.527Z,98046.50
2023-04-23T05:41:11.511Z,98048.97
2023-04-23T05:43:38.233Z,98053.00
2023-04-23T05:46:07.453Z,98055.47
2023-04-23T05:48:34.786Z,98050.94
2023-04-23T05:51:04.252Z,98055.78
2023-04-23T05:53:30.993Z,98052.59
2023-04-23T05:55:57.970Z,98053.50
2023-04-23T05:58:24.600Z,98059.44
2023-04-23T06:00:53.067Z,98049.78
2023-04-23T06:03:20.069Z,98058.31
2023-04-23T06:05:47.073Z,98052.06
2023-04-23T06:08:14.013Z,98054.31
2023-04-23T06:10:40.788Z,98059.19
2023-04-23T06:13:09.550Z,98054.53
2023-04-23T06:15:36.152Z,98056.78
2023-04-23T06:18:02.909Z,98064.31
2023-04-23T06:20:30.178Z,98059.38
2023-04-23T06:22:56.799Z,98063.31
2023-04-23T06:25:23.466Z,98051.78
2023-04-23T06:27:50.112Z,98061.03
2023-04-23T06:30:16.754Z,98054.69
2023-04-23T06:32:43.536Z,98060.19
2023-04-23T06:35:10.303Z,98055.88
2023-04-23T06:37:36.954Z,98058.13
2023-04-23T06:40:03.909Z,98059.31
2023-04-23T06:42:30.851Z,98057.13
2023-04-23T06:44:59.376Z,98061.03
2023-04-23T06:47:26.096Z,98052.63
2023-04-23T06:49:52.749Z,98049.50
2023-04-23T06:52:19.452Z,98042.69
2023-04-23T06:54:46.365Z,98045.22
2023-04-23T06:57:12.987Z,98045.66
2023-04-23T06:59:39.673Z,98052.50
2023-04-23T07:02:06.566Z,98047.94
2023-04-23T07:04:33.523Z,98045.59
2023-04-23T07:07:00.539Z,98037.47
2023-04-23T07:09:28.578Z,98039.09
2023-04-23T07:11:55.176Z,98044.69
2023-04-23T07:14:21.849Z,98039.28
2023-04-23T07:16:48.497Z,98040.19
2023-04-23T07:19:15.218Z,98037.56
2023-04-23T07:21:42.304Z,98041.09
2023-04-23T07:24:09.006Z,98042.47
2023-04-23T07:26:36.308Z,98045.22
2023-04-23T07:29:04.858Z,98040.50
2023-04-23T07:31:31.525Z,98038.53
2023-04-23T07:33:58.198Z,98039.13
2023-04-23T07:36:24.935Z,98047.13
2023-04-23T07:38:51.570Z,98044.22
2023-04-23T07:41:18.368Z,98042.06
2023-04-23T07:43:47.995Z,98040.13
2023-04-23T07:46:17.194Z,98039.75
2023-04-23T07:48:46.504Z,98044.72
2023-04-23T07:51:13.158Z,98046.22
2023-04-23T07:53:39.917Z,98047.34
2023-04-23T07:56:06.710Z,98042.72
2023-04-23T07:58:33.506Z,98041.59
2023-04-23T08:01:00.110Z,98040.72
2023-04-23T08:03:29.064Z,98036.06
2023-04-23T08:05:56.958Z,98030.44
2023-04-23T08:08:23.549Z,98028.69
2023-04-23T08:10:50.224Z,98030.56
2023-04-23T08:13:16.924Z,98030.31
2023-04-23T08:15:43.604Z,98027.16
2023-04-23T08:18:10.336Z,98023.00
2023-04-23T08:20:37.120Z,98023.75
2023-04-23T08:23:04.786Z,98017.94
2023-04-23T08:25:32.798Z,98023.66
2023-04-23T08:27:59.601Z,98018.38
2023-04-23T08:30:26.385Z,98019.03
2023-04-23T08:32:54.005Z,98023.78
2023-04-23T08:35:21.344Z,98027.78
2023-04-23T08:40:14.919Z,98014.50
2023-04-23T08:42:53.484Z,98010.59
2023-04-23T08:45:22.218Z,98008.38
2023-04-23T08:47:49.164Z,98003.81
2023-04-23T08:50:20.518Z,98002.97
2023-04-23T08:52:51.571Z,98004.53
2023-04-23T08:55:18.974Z,98001.44
2023-04-23T08:57:47.028Z,97998.97
2023-04-23T09:00:15.827Z,98002.97
2023-04-23T09:02:47.053Z,98007.00
2023-04-23T09:05:14.530Z,98002.72
2023-04-23T09:07:41.894Z,98004.34
2023-04-23T09:10:11.728Z,98008.66
2023-04-23T09:12:43.429Z,98010.75
2023-04-23T09:15:11.083Z,97999.78
2023-04-23T09:17:44.028Z,98000.06
2023-04-23T09:20:11.960Z,97998.81
2023-04-23T09:22:56.835Z,97997.84
2023-04-23T09:25:24.511Z,97995.06
2023-04-23T09:27:53.203Z,97998.25
2023-04-23T09:30:20.263Z,97987.13
2023-04-23T09:32:48.078Z,97986.47
2023-04-23T09:35:17.082Z,97987.44
2023-04-23T09:37:49.120Z,97983.44
2023-04-23T09:40:21.051Z,97976.75
2023-04-23T09:42:57.568Z,97965.53
2023-04-23T09:45:25.910Z,97955.13
2023-04-23T09:47:57.713Z,97968.03
2023-04-23T09:50:36.974Z,97962.75
2023-04-23T09:53:04.828Z,97964.00
2023-04-23T09:55:40.854Z,97960.41
2023-04-23T09:58:15.780Z,97952.06
2023-04-23T10:00:45.785Z,97946.91
2023-04-23T10:03:12.893Z,97945.09
2023-04-23T10:08:14.074Z,97943.53
2023-04-23T10:10:55.079Z,97929.53
2023-04-23T10:13:28.268Z,97931.44
2023-04-23T10:15:55.204Z,97934.34
2023-04-23T10:18:24.210Z,97921.75
2023-04-23T10:20:52.427Z,97927.28
2023-04-23T10:23:23.691Z,97928.81
2023-04-23T10:26:00.393Z,97926.44
2023-04-23T10:28:33.143Z,97915.22
2023-04-23T10:31:04.072Z,97929.22
2023-04-23T10:33:39.780Z,97919.63
2023-04-23T10:36:12.968Z,97915.34
2023-04-23T10:38:54.872Z,97909.25
2023-04-23T10:41:28.979Z,97915.34
2023-04-23T10:43:55.772Z,97906.59
2023-04-23T10:46:33.244Z,97913.81
2023-04-23T10:49:16.412Z,97922.81
2023-04-23T10:52:17.684Z,97921.81
2023-04-23T10:54:34.718Z,97914.78
2023-04-23T10:57:03.816Z,97914.78
2023-04-23T10:59:32.219Z,97907.28
2023-04-23T11:02:07.321Z,97907.28
2023-04-23T11:04:35.837Z,97904.50
2023-04-23T11:07:10.469Z,97897.56
2023-04-23T11:09:53.732Z,97897.81
2023-04-23T11:12:27.073Z,97893.69
2023-04-23T11:14:55.266Z,97889.22
2023-04-23T11:17:34.154Z,97899.31
2023-04-23T11:20:14.183Z,97888.13
2023-04-23T11:22:44.953Z,97899.47
2023-04-23T11:25:19.273Z,97898.03
2023-04-23T11:27:47.238Z,97890.16
2023-04-23T11:30:25.589Z,97890.56
2023-04-23T11:32:54.618Z,97887.22
2023-04-23T11:35:24.714Z,97887.50
2023-04-23T11:37:51.393Z,97889.41
2023-04-23T11:40:19.845Z,97880.53
2023-04-23T11:42:51.670Z,97873.91
2023-04-23T11:45:23.260Z,97873.63
2023-04-23T11:47:57.133Z,97873.38
2023-04-23T11:50:25.286Z,97876.56
2023-04-23T11:52:52.938Z,97885.28
2023-04-23T11:55:20.779Z,97884.19
2023-04-23T11:57:49.928Z,97877.94
2023-04-23T12:00:19.559Z,97867.69
2023-04-23T12:03:03.488Z,97887.22
2023-04-23T12:05:33.688Z,97887.78
2023-04-23T12:08:17.348Z,97882.25
2023-04-23T12:10:48.151Z,97879.75
2023-04-23T12:13:21.118Z,97867.31
2023-04-23T12:15:52.683Z,97883.34
2023-04-23T12:18:19.769Z,97873.38
2023-04-23T12:20:46.625Z,97869.84
2023-04-23T12:23:13.265Z,97865.97
2023-04-23T12:25:41.022Z,97856.69
2023-04-23T12:28:08.002Z,97860.13
2023-04-23T12:30:43.404Z,97864.03
2023-04-23T12:33:12.085Z,97865.97
2023-04-23T12:35:42.521Z,97860.19
2023-04-23T12:38:25.695Z,97858.13
2023-04-23T12:40:57.137Z,97856.59
2023-04-23T12:43:25.582Z,97852.72
2023-04-23T12:45:55.887Z,97846.34
2023-04-23T12:48:22.528Z,97849.25
2023-04-23T12:50:49.348Z,97846.34
2023-04-23T12:53:16.083Z,97843.34
2023-04-23T12:55:44.421Z,97851.09
2023-04-23T12:58:11.198Z,97837.78
2023-04-23T13:00:37.831Z,97840.56
2023-04-23T13:03:04.933Z,97825.56
2023-04-23T13:05:31.511Z,97831.69
2023-04-23T13:07:59.349Z,97830.84
2023-04-23T13:10:26.115Z,97819.63
2023-04-23T13:12:52.870Z,97820.44
2023-04-23T13:15:20.288Z,97811.75
2023-04-23T13:17:47.303Z,97816.44
2023-04-23T13:20:13.990Z,97818.25
2023-04-23T13:22:40.747Z,97816.44
2023-04-23T13:25:07.587Z,97818.66
2023-04-23T13:27:34.235Z,97807.03
2023-04-23T13:30:01.523Z,97807.03
2023-04-23T13:32:32.123Z,97797.03
2023-04-23T13:35:01.887Z,97801.78
2023-04-23T13:37:30.289Z,97796.22
2023-04-23T13:39:57.095Z,97791.91
2023-04-23T13:42:23.780Z,97788.19
2023-04-23T13:44:50.742Z,97780.97
2023-04-23T13:47:20.076Z,97773.75
2023-04-23T13:49:48.043Z,97778.06
2023-04-23T13:52:14.978Z,97778.75
2023-04-23T13:54:42.310Z,97775.44
2023-04-23T13:57:12.033Z,97774.19
2023-04-23T13:59:38.674Z,97774.03
2023-04-23T14:02:08.104Z,97769.91
2023-04-23T14:04:34.756Z,97759.38
2023-04-23T14:07:01.445Z,97759.66
2023-04-23T14:09:29.974Z,97757.25
2023-04-23T14:11:56.970Z,97757.13
2023-04-23T14:14:23.619Z,97756.72
2023-04-23T14:16:50.431Z,97761.16
2023-04-23T14:19:17.177Z,97761.03
2023-04-23T14:21:44.113Z,97760.34
2023-04-23T14:24:27.630Z,97753.00
2023-04-23T14:26:54.434Z,97750.63
2023-04-23T14:29:32.832Z,97750.19
2023-04-23T14:31:59.492Z,97747.72
2023-04-23T14:34:26.154Z,97748.53
2023-04-23T14:36:53.504Z,97736.63
2023-04-23T14:39:22.688Z,97747.44
2023-04-23T14:41:49.343Z,97745.34
2023-04-23T14:44:15.940Z,97743.00
2023-04-23T14:46:42.630Z,97740.78
2023-04-23T14:49:09.215Z,97743.56
2023-04-23T14:51:37.504Z,97738.31
2023-04-23T14:54:05.048Z,97745.75
2023-04-23T14:56:31.770Z,97739.34
2023-04-23T14:58:58.398Z,97734.94
2023-04-23T15:01:25.077Z,97735.78
2023-04-23T15:03:53.567Z,97733.16
2023-04-23T15:06:23.441Z,97724.41
2023-04-23T15:08:50.114Z,97730.19
2023-04-23T15:11:16.853Z,97733.25
2023-04-23T15:14:03.893Z,97724.94
2023-04-23T15:19:06.387Z,97723.28
2023-04-23T15:21:33.400Z,97724.94
2023-04-23T15:24:00.022Z,97725.06
2023-04-23T15:26:26.542Z,97726.19
2023-04-23T15:28:53.192Z,97728.25
2023-04-23T15:31:19.818Z,97728.25
2023-04-23T15:33:47.893Z,97717.16
2023-04-23T15:36:14.584Z,97727.09
2023-04-23T15:38:41.457Z,97717.13
2023-04-23T15:41:11.390Z,97719.31
2023-04-23T15:43:38.011Z,97720.00
2023-04-23T15:46:04.706Z,97709.75
2023-04-23T15:48:31.493Z,97709.03
2023-04-23T15:50:58.370Z,97708.75
2023-04-23T15:53:25.092Z,97704.84
2023-04-23T15:55:55.029Z,97705.53
2023-04-23T15:58:24.490Z,97697.09
2023-04-23T16:00:51.161Z,97706.91
2023-04-23T16:03:18.029Z,97701.66
2023-04-23T16:05:48.165Z,97698.44
2023-04-23T16:08:16.365Z,97704.50
2023-04-23T16:10:43.170Z,97707.41
2023-04-23T16:13:12.681Z,97699.78
2023-04-23T16:15:39.299Z,97696.72
2023-04-23T16:18:06.601Z,97695.06
2023-04-23T16:20:33.508Z,97693.66
2023-04-23T16:23:00.249Z,97692.94
2023-04-23T16:25:27.019Z,97698.47
2023-04-23T16:27:54.033Z,97697.75
2023-04-23T16:30:21.262Z,97686.94
2023-04-23T16:32:47.946Z,97697.47
2023-04-23T16:35:14.626Z,97690.94
2023-04-23T16:37:41.404Z,97696.44
2023-04-23T16:40:09.164Z,97694.06
2023-04-23T16:42:36.058Z,97686.59
2023-04-23T16:45:03.083Z,97682.69
2023-04-23T16:47:29.816Z,97682.94
2023-04-23T16:49:56.633Z,97686.53
2023-04-23T16:52:25.459Z,97676.31
2023-04-23T16:54:52.041Z,97679.16
2023-04-23T16:57:18.917Z,97680.13
2023-04-23T16:59:45.687Z,97681.09
2023-04-23T17:02:12.582Z,97674.69
2023-04-23T17:04:39.742Z,97675.66
2023-04-23T17:07:07.594Z,97674.25
2023-04-23T17:09:34.935Z,97669.25
2023-04-23T17:12:02.248Z,97666.19
2023-04-23T17:14:31.129Z,97670.81
2023-04-23T17:16:57.843Z,97671.91
2023-04-23T17:19:24.524Z,97668.81
2023-04-23T17:21:53.485Z,97672.53
2023-04-23T17:24:22.413Z,97669.34
2023-04-23T17:26:51.637Z,97664.94
2023-04-23T17:29:18.317Z,97666.00
2023-04-23T17:31:45.393Z,97660.03
2023-04-23T17:34:12.222Z,97664.59
2023-04-23T17:36:38.987Z,97657.94
2023-04-23T17:39:05.816Z,97662.25
2023-04-23T17:41:32.584Z,97666.44
2023-04-23T17:43:59.268Z,97660.47
2023-04-23T17:46:26.022Z,97653.47
2023-04-23T17:48:52.762Z,97661.44
2023-04-23T17:51:19.509Z,97656.44
2023-04-23T17:53:50.604Z,97659.44
2023-04-23T17:56:17.282Z,97658.72
2023-04-23T17:58:44.027Z,97658.97
2023-04-23T18:01:10.841Z,97660.28
2023-04-23T18:03:38.368Z,97659.00
2023-04-23T18:06:05.638Z,97660.66
2023-04-23T18:08:32.350Z,97665.19
2023-04-23T18:10:59.557Z,97657.34
2023-04-23T18:13:26.470Z,97658.56
2023-04-23T18:15:53.184Z,97655.47
2023-04-23T18:18:21.725Z,97656.53
2023-04-23T18:20:49.294Z,97656.91
2023-04-23T18:23:16.138Z,97660.50
2023-04-23T18:25:42.918Z,97652.97
2023-04-23T18:28:09.775Z,97654.91
2023-04-23T18:30:39.437Z,97660.28
2023-04-23T18:33:15.333Z,97660.59
2023-04-23T18:35:45.320Z,97652.84
2023-04-23T18:38:25.753Z,97665.22
2023-04-23T18:40:52.474Z,97663.81
2023-04-23T18:43:19.157Z,97664.88
2023-04-23T18:45:47.041Z,97655.50
2023-04-23T18:48:35.462Z,97663.59
2023-04-23T18:51:13.513Z,97664.78
2023-04-23T18:53:40.307Z,97660.63
2023-04-23T18:56:10.035Z,97662.66
2023-04-23T18:58:36.835Z,97659.31
2023-04-23T19:01:03.905Z,97663.09
2023-04-23T19:03:31.350Z,97665.72
2023-04-23T19:05:58.240Z,97665.97
2023-04-23T19:08:30.727Z,97671.44
2023-04-23T19:10:57.543Z,97663.59
2023-04-23T19:13:24.484Z,97662.06
2023-04-23T19:15:51.592Z,97663.81
2023-04-23T19:18:18.843Z,97658.00
2023-04-23T19:20:45.545Z,97659.06
2023-04-23T19:23:12.223Z,97652.16
2023-04-23T19:25:38.889Z,97650.63
2023-04-23T19:28:05.528Z,97651.69
2023-04-23T19:30:32.478Z,97654.78
2023-04-23T19:32:59.345Z,97652.03
2023-04-23T19:35:26.572Z,97657.63
2023-04-23T19:37:53.304Z,97656.91
2023-04-23T19:40:19.986Z,97643.22
2023-04-23T19:42:46.661Z,97652.16
2023-04-23T19:45:15.577Z,97649.75
2023-04-23T19:47:42.412Z,97643.91
2023-04-23T19:50:14.042Z,97642.50
2023-04-23T19:52:41.441Z,97640.13
2023-04-23T19:55:10.320Z,97643.78
2023-04-23T19:57:37.303Z,97645.66
2023-04-23T20:00:06.624Z,97644.25
2023-04-23T20:02:35.136Z,97647.06
2023-04-23T20:05:02.996Z,97634.13
2023-04-23T20:07:29.717Z,97642.28
2023-04-23T20:09:56.373Z,97651.31
2023-04-23T20:12:24.690Z,97641.53
2023-04-23T20:14:51.801Z,97640.72
2023-04-23T20:17:20.208Z,97636.78
2023-04-23T20:19:46.884Z,97640.16
2023-04-23T20:22:13.619Z,97635.78
2023-04-23T20:24:42.767Z,97640.53
2023-04-23T20:27:09.396Z,97633.13
2023-04-23T20:29:36.087Z,97620.38
2023-04-23T20:32:02.760Z,97626.44
2023-04-23T20:34:29.581Z,97630.72
2023-04-23T20:36:58.914Z,97617.19
2023-04-23T20:39:25.661Z,97622.63
2023-04-23T20:41:52.629Z,97631.03
2023-04-23T20:44:22.699Z,97600.72
2023-04-23T20:46:53.002Z,97605.25
2023-04-23T20:49:20.075Z,97606.06
2023-04-23T20:51:46.863Z,97601.16
2023-04-23T20:54:13.546Z,97603.06
2023-04-23T20:56:40.331Z,97593.69
2023-04-23T20:59:07.040Z,97598.28
2023-04-23T21:01:33.874Z,97592.56
2023-04-23T21:04:05.977Z,97598.50
2023-04-23T21:06:33.521Z,97607.63
2023-04-23T21:09:00.191Z,97599.66
2023-04-23T21:11:27.901Z,97597.06
2023-04-23T21:14:00.228Z,97588.28
2023-04-23T21:16:27.593Z,97595.41
2023-04-23T21:18:54.250Z,97589.94
2023-04-23T21:21:27.076Z,97595.41
2023-04-23T21:23:53.740Z,97595.41
2023-04-23T21:26:21.113Z,97584.22
2023-04-23T21:28:47.781Z,97583.38
2023-04-23T21:31:29.756Z,97589.31
2023-04-23T21:33:56.941Z,97582.22
2023-04-23T21:36:23.745Z,97577.00
2023-04-23T21:38:50.557Z,97572.81
2023-04-23T21:41:17.667Z,97581.50
2023-04-23T21:43:44.418Z,97581.50
2023-04-23T21:46:11.143Z,97584.72
2023-04-23T21:48:37.875Z,97575.94
2023-04-23T21:51:05.160Z,97581.38
2023-04-23T21:53:31.754Z,97581.16
2023-04-23T21:56:00.828Z,97580.97
2023-04-23T21:58:28.039Z,97577.38
2023-04-23T22:00:55.357Z,97589.19
2023-04-23T22:03:30.863Z,97583.84
2023-04-23T22:06:05.213Z,97583.09
2023-04-23T22:08:33.079Z,97581.34
2023-04-23T22:10:59.955Z,97582.75
2023-04-23T22:13:26.846Z,97587.66
2023-04-23T22:15:53.595Z,97583.38
2023-04-23T22:18:20.665Z,97583.16
2023-04-23T22:20:49.572Z,97581.72
2023-04-23T22:23:16.434Z,97577.94
2023-04-23T22:25:43.159Z,97571.44
2023-04-23T22:28:09.783Z,97568.94
2023-04-23T22:30:36.738Z,97562.63
2023-04-23T22:33:04.179Z,97557.50
2023-04-23T22:35:31.880Z,97561.56
2023-04-23T22:37:58.707Z,97571.31
2023-04-23T22:40:25.356Z,97557.28
2023-04-23T22:42:52.019Z,97564.75
2023-04-23T22:45:18.809Z,97550.88
2023-04-23T22:47:45.516Z,97557.03
2023-04-23T22:50:12.358Z,97549.31
2023-04-23T22:52:39.053Z,97548.47
2023-04-23T22:55:06.260Z,97551.78
2023-04-23T22:57:33.017Z,97543.97
2023-04-23T23:00:00.731Z,97542.41
2023-04-23T23:02:27.485Z,97543.69
2023-04-23T23:04:54.786Z,97541.91
2023-04-23T23:07:21.711Z,97543.47
2023-04-23T23:09:48.360Z,97543.47
2023-04-23T23:12:15.043Z,97534.19
2023-04-23T23:14:41.783Z,97537.00
2023-04-23T23:17:08.459Z,97525.97
2023-04-23T23:19:35.102Z,97522.41
2023-04-23T23:22:01.851Z,97521.34
2023-04-23T23:24:28.418Z,97522.31
2023-04-23T23:26:55.050Z,97514.19
2023-04-23T23:29:21.692Z,97515.66
2023-04-23T23:31:48.506Z,97517.84
2023-04-23T23:34:15.376Z,97520.81
2023-04-23T23:36:42.096Z,97518.94
2023-04-23T23:39:08.801Z,97514.31
2023-04-23T23:41:35.356Z,97515.59
2023-04-23T23:44:04.226Z,97512.97
2023-04-23T23:46:30.888Z,97518.31
2023-04-23T23:48:57.526Z,97518.31
2023-04-23T23:51:24.236Z,97516.44
2023-04-23T23:53:50.903Z,97525.00
2023-04-23T23:56:17.639Z,97531.75
2023-04-23T23:58:44.314Z,97530.59
